Time;durP1;ratioP1;P1;durP2;ratioP2;P2;SDS_P1;SDS_P2;PMS_P1;PMS_P2;Temp;Humidity;BMP_temperature;BMP_pressure;BME280_temperature;BME280_humidity;BME280_pressure;Samples;Min_cycle;Max_cycle;Signal;HPM_P1;HPM_P2
2023/05/26 00:01:57;;;;;;;29.98;5.75;;;;;;;;;;5033524;28;20049;-73
2023/05/26 00:04:24;;;;;;;31.80;5.55;;;;;;;;;;5032306;28;20431;-73
2023/05/26 00:06:52;;;;;;;35.30;5.70;;;;;;;;;;5034640;28;20522;-73
2023/05/26 00:09:20;;;;;;;33.28;6.15;;;;;;;;;;5032741;28;20100;-73
2023/05/26 00:11:46;;;;;;;37.80;5.78;;;;;;;;;;5034901;28;20041;-73
2023/05/26 00:14:14;;;;;;;28.17;6.10;;;;;;;;;;5034753;28;20041;-73
2023/05/26 00:16:40;;;;;;;35.28;6.10;;;;;;;;;;5034557;28;20045;-73
2023/05/26 00:19:07;;;;;;;31.75;6.57;;;;;;;;;;5033720;28;20045;-73
2023/05/26 00:21:33;;;;;;;32.50;5.80;;;;;;;;;;5029289;28;20045;-73
2023/05/26 00:23:59;;;;;;;34.40;5.88;;;;;;;;;;5034117;28;20076;-73
2023/05/26 00:26:25;;;;;;;32.83;7.00;;;;;;;;;;5033587;28;20494;-73
2023/05/26 00:28:51;;;;;;;37.92;6.93;;;;;;;;;;5034522;28;20053;-73
2023/05/26 00:31:18;;;;;;;35.70;5.55;;;;;;;;;;5031770;28;20107;-73
2023/05/26 00:33:44;;;;;;;33.72;6.28;;;;;;;;;;5025957;28;20451;-73
2023/05/26 00:36:10;;;;;;;33.97;6.28;;;;;;;;;;5034295;28;20088;-73
2023/05/26 00:38:36;;;;;;;31.23;6.35;;;;;;;;;;5021244;28;20042;-73
2023/05/26 00:41:02;;;;;;;31.60;5.97;;;;;;;;;;5034390;28;20464;-73
2023/05/26 00:43:29;;;;;;;38.70;6.65;;;;;;;;;;5034758;28;20126;-73
2023/05/26 00:45:55;;;;;;;35.22;6.93;;;;;;;;;;5032858;28;20132;-73
2023/05/26 00:48:21;;;;;;;33.70;6.20;;;;;;;;;;5034682;28;20053;-73
2023/05/26 00:50:48;;;;;;;35.70;6.25;;;;;;;;;;5033847;28;20157;-73
2023/05/26 00:53:15;;;;;;;37.70;6.38;;;;;;;;;;5034368;28;20049;-73
2023/05/26 00:55:41;;;;;;;33.97;6.13;;;;;;;;;;5034610;28;20053;-73
2023/05/26 00:58:07;;;;;;;35.95;6.32;;;;;;;;;;5034551;28;20041;-73
2023/05/26 01:00:33;;;;;;;33.88;6.28;;;;;;;;;;5015380;28;20034;-73
2023/05/26 01:02:59;;;;;;;33.47;6.47;;;;;;;;;;5033584;28;20049;-73
2023/05/26 01:05:26;;;;;;;33.97;6.35;;;;;;;;;;5034195;28;20055;-73
2023/05/26 01:07:53;;;;;;;32.95;5.65;;;;;;;;;;5034548;28;20091;-73
2023/05/26 01:10:19;;;;;;;25.77;5.88;;;;;;;;;;5034383;28;20045;-73
2023/05/26 01:12:50;;;;;;;36.25;6.18;;;;;;;;;;5034296;28;20049;-73
2023/05/26 01:15:20;;;;;;;31.83;6.53;;;;;;;;;;5032095;28;20475;-73
2023/05/26 01:17:52;;;;;;;34.00;6.47;;;;;;;;;;5033447;28;20076;-73
2023/05/26 01:20:26;;;;;;;33.40;6.15;;;;;;;;;;5026803;28;20074;-73
2023/05/26 01:22:58;;;;;;;30.90;5.75;;;;;;;;;;5030102;28;20495;-73
2023/05/26 01:25:30;;;;;;;42.17;6.43;;;;;;;;;;5032021;28;20069;-73
2023/05/26 01:27:59;;;;;;;34.03;5.97;;;;;;;;;;5031270;28;20049;-73
2023/05/26 01:30:26;;;;;;;31.90;5.65;;;;;;;;;;5030651;28;20044;-73
2023/05/26 01:32:52;;;;;;;28.85;5.53;;;;;;;;;;5030260;28;20091;-73
2023/05/26 01:35:18;;;;;;;30.60;6.30;;;;;;;;;;5013305;28;20514;-73
2023/05/26 01:37:46;;;;;;;36.35;6.88;;;;;;;;;;5020294;28;20045;-73
2023/05/26 01:40:12;;;;;;;35.92;6.60;;;;;;;;;;5029482;28;20065;-73
2023/05/26 01:42:41;;;;;;;39.72;6.35;;;;;;;;;;5027530;28;20085;-74
2023/05/26 01:45:12;;;;;;;33.20;7.03;;;;;;;;;;5026268;28;20486;-73
2023/05/26 01:47:40;;;;;;;34.22;6.68;;;;;;;;;;5009210;28;20041;-73
2023/05/26 01:50:08;;;;;;;29.23;5.90;;;;;;;;;;5009369;28;20487;-73
2023/05/26 01:52:35;;;;;;;31.58;6.03;;;;;;;;;;5008817;28;20065;-73
2023/05/26 01:55:02;;;;;;;40.10;6.32;;;;;;;;;;5008225;28;20088;-73
2023/05/26 01:57:29;;;;;;;36.30;6.75;;;;;;;;;;5012076;28;20038;-73
2023/05/26 01:59:55;;;;;;;33.00;6.07;;;;;;;;;;5016631;28;20042;-73
2023/05/26 02:02:21;;;;;;;27.52;5.75;;;;;;;;;;5013611;28;20042;-73
2023/05/26 02:04:47;;;;;;;29.40;6.03;;;;;;;;;;5013485;28;20131;-73
2023/05/26 02:07:14;;;;;;;33.40;6.88;;;;;;;;;;5013422;28;20107;-73
2023/05/26 02:09:41;;;;;;;31.15;6.18;;;;;;;;;;5012135;28;20107;-73
2023/05/26 02:12:07;;;;;;;31.60;6.07;;;;;;;;;;5011569;28;20045;-73
2023/05/26 02:14:33;;;;;;;33.50;6.13;;;;;;;;;;5012356;28;20229;-73
2023/05/26 02:16:59;;;;;;;32.72;6.25;;;;;;;;;;5009820;28;20560;-73
2023/05/26 02:19:26;;;;;;;31.63;6.72;;;;;;;;;;5009576;28;20104;-73
2023/05/26 02:21:52;;;;;;;30.42;5.93;;;;;;;;;;5011486;28;20063;-73
2023/05/26 02:24:18;;;;;;;33.53;6.20;;;;;;;;;;5011472;28;20095;-73
2023/05/26 02:26:44;;;;;;;30.70;6.40;;;;;;;;;;5011882;28;20046;-73
2023/05/26 02:29:11;;;;;;;30.13;6.03;;;;;;;;;;5010770;28;20054;-73
2023/05/26 02:31:39;;;;;;;28.02;6.00;;;;;;;;;;5013268;28;20054;-73
2023/05/26 02:34:05;;;;;;;36.35;6.60;;;;;;;;;;5012079;28;20131;-73
2023/05/26 02:36:31;;;;;;;32.45;5.68;;;;;;;;;;5012693;28;20100;-73
2023/05/26 02:38:58;;;;;;;27.67;5.90;;;;;;;;;;5011629;28;20050;-73
2023/05/26 02:41:25;;;;;;;31.58;6.45;;;;;;;;;;5012411;28;20389;-73
2023/05/26 02:43:51;;;;;;;37.38;6.63;;;;;;;;;;5013023;28;20495;-73
2023/05/26 02:46:17;;;;;;;32.63;6.15;;;;;;;;;;5020179;28;20136;-73
2023/05/26 02:48:43;;;;;;;32.17;5.97;;;;;;;;;;5032866;28;20054;-73
2023/05/26 02:51:10;;;;;;;36.30;6.60;;;;;;;;;;5032093;28;20056;-73
2023/05/26 02:53:36;;;;;;;29.73;5.93;;;;;;;;;;5031052;28;20072;-73
2023/05/26 02:56:02;;;;;;;36.38;6.53;;;;;;;;;;5032018;28;20045;-73
2023/05/26 02:58:29;;;;;;;34.70;6.45;;;;;;;;;;5020789;28;20494;-73
2023/05/26 03:00:55;;;;;;;30.42;6.07;;;;;;;;;;5000537;28;20050;-73
2023/05/26 03:03:21;;;;;;;32.22;5.82;;;;;;;;;;5029530;28;20049;-73
2023/05/26 03:05:47;;;;;;;32.38;6.43;;;;;;;;;;5033254;28;20034;-73
2023/05/26 03:08:13;;;;;;;32.17;5.75;;;;;;;;;;5035049;28;20041;-73
2023/05/26 03:10:39;;;;;;;36.58;6.20;;;;;;;;;;5034647;28;20049;-73
2023/05/26 03:13:06;;;;;;;29.92;6.13;;;;;;;;;;5033551;28;20069;-73
2023/05/26 03:15:36;;;;;;;37.33;6.65;;;;;;;;;;5032281;28;20104;-73
2023/05/26 03:18:02;;;;;;;33.15;6.18;;;;;;;;;;5032575;28;20041;-73
2023/05/26 03:20:29;;;;;;;31.08;6.80;;;;;;;;;;5034834;28;20048;-73
2023/05/26 03:22:55;;;;;;;33.38;6.32;;;;;;;;;;5032020;28;20104;-73
2023/05/26 03:25:21;;;;;;;44.88;6.82;;;;;;;;;;5031650;28;20061;-73
2023/05/26 03:27:47;;;;;;;33.10;6.22;;;;;;;;;;5034939;28;20403;-73
2023/05/26 03:30:13;;;;;;;31.58;5.63;;;;;;;;;;5033304;28;20037;-73
2023/05/26 03:32:39;;;;;;;34.60;6.35;;;;;;;;;;5034389;28;20049;-73
2023/05/26 03:35:05;;;;;;;36.83;6.07;;;;;;;;;;5033318;28;20414;-73
2023/05/26 03:37:32;;;;;;;40.65;6.38;;;;;;;;;;5023217;28;20402;-73
2023/05/26 03:39:58;;;;;;;35.63;6.20;;;;;;;;;;5034903;28;20403;-73
2023/05/26 03:42:24;;;;;;;34.25;6.47;;;;;;;;;;5034924;28;20049;-73
2023/05/26 03:44:50;;;;;;;33.72;6.05;;;;;;;;;;5033902;28;20049;-73
2023/05/26 03:47:16;;;;;;;33.88;7.35;;;;;;;;;;5018256;28;20096;-73
2023/05/26 03:49:42;;;;;;;40.05;6.03;;;;;;;;;;5027887;28;20060;-73
2023/05/26 03:52:08;;;;;;;36.90;7.10;;;;;;;;;;5034638;28;20056;-73
2023/05/26 03:54:34;;;;;;;37.45;5.85;;;;;;;;;;5016505;28;20440;-73
2023/05/26 03:57:01;;;;;;;32.03;6.25;;;;;;;;;;5029842;28;20480;-73
2023/05/26 03:59:27;;;;;;;41.03;6.30;;;;;;;;;;5034634;28;20044;-73
2023/05/26 04:01:55;;;;;;;29.52;6.22;;;;;;;;;;5034420;28;20054;-73
2023/05/26 04:04:21;;;;;;;34.42;7.10;;;;;;;;;;5034632;28;20060;-73
2023/05/26 04:06:47;;;;;;;33.40;7.30;;;;;;;;;;5034205;28;20045;-73
2023/05/26 04:09:13;;;;;;;39.25;6.30;;;;;;;;;;5034769;28;20347;-73
2023/05/26 04:11:39;;;;;;;32.13;6.47;;;;;;;;;;5034266;28;20056;-73
2023/05/26 04:14:06;;;;;;;41.80;7.47;;;;;;;;;;5027629;28;20096;-73
2023/05/26 04:16:32;;;;;;;31.80;5.85;;;;;;;;;;5030310;28;20075;-73
2023/05/26 04:18:58;;;;;;;31.70;6.40;;;;;;;;;;5015034;28;20042;-73
2023/05/26 04:21:25;;;;;;;33.53;6.45;;;;;;;;;;5027278;28;20495;-73
2023/05/26 04:23:52;;;;;;;34.88;6.97;;;;;;;;;;5015730;28;20423;-73
2023/05/26 04:26:18;;;;;;;33.42;6.47;;;;;;;;;;5031843;28;20513;-73
2023/05/26 04:28:45;;;;;;;33.72;6.68;;;;;;;;;;5033547;28;20540;-73
2023/05/26 04:31:12;;;;;;;29.27;6.03;;;;;;;;;;5033231;28;20053;-73
2023/05/26 04:33:40;;;;;;;33.17;6.47;;;;;;;;;;5028498;28;20077;-73
2023/05/26 04:36:09;;;;;;;33.85;6.68;;;;;;;;;;5027970;28;20053;-73
2023/05/26 04:38:36;;;;;;;27.70;5.97;;;;;;;;;;5035818;28;20128;-73
2023/05/26 04:41:06;;;;;;;37.25;6.38;;;;;;;;;;5023095;28;20095;-73
2023/05/26 04:43:34;;;;;;;30.80;6.03;;;;;;;;;;5031419;28;20064;-73
2023/05/26 04:46:01;;;;;;;30.70;6.07;;;;;;;;;;5023518;28;20165;-73
2023/05/26 04:48:27;;;;;;;33.08;5.93;;;;;;;;;;5033767;28;20041;-73
2023/05/26 04:50:53;;;;;;;32.20;6.00;;;;;;;;;;5025603;28;20064;-73
2023/05/26 04:53:20;;;;;;;34.65;6.45;;;;;;;;;;5026298;28;20041;-73
2023/05/26 04:55:47;;;;;;;33.58;6.03;;;;;;;;;;5039055;28;20049;-73
2023/05/26 04:58:13;;;;;;;30.50;6.10;;;;;;;;;;5053562;28;20048;-73
2023/05/26 05:00:39;;;;;;;28.98;5.90;;;;;;;;;;5037765;28;20050;-73
2023/05/26 05:03:05;;;;;;;34.13;6.28;;;;;;;;;;5023212;28;20410;-73
2023/05/26 05:05:31;;;;;;;36.45;6.90;;;;;;;;;;5033486;28;20038;-73
2023/05/26 05:07:58;;;;;;;30.80;5.93;;;;;;;;;;5032548;28;20073;-73
2023/05/26 05:10:24;;;;;;;31.15;5.25;;;;;;;;;;5013379;28;20488;-73
2023/05/26 05:12:50;;;;;;;36.83;6.35;;;;;;;;;;5013125;28;20388;-73
2023/05/26 05:15:18;;;;;;;33.78;6.05;;;;;;;;;;5019938;28;20087;-73
2023/05/26 05:17:45;;;;;;;32.22;6.25;;;;;;;;;;5032440;28;20041;-73
2023/05/26 05:20:11;;;;;;;33.50;6.78;;;;;;;;;;5033270;28;20038;-73
2023/05/26 05:22:37;;;;;;;34.97;6.00;;;;;;;;;;5032018;28;20047;-73
2023/05/26 05:25:04;;;;;;;27.13;5.50;;;;;;;;;;5014640;28;20099;-73
2023/05/26 05:27:30;;;;;;;33.45;6.18;;;;;;;;;;5032142;28;20045;-73
2023/05/26 05:29:56;;;;;;;35.22;6.60;;;;;;;;;;5034030;28;20041;-73
2023/05/26 05:32:22;;;;;;;29.05;6.47;;;;;;;;;;5031208;28;20053;-73
2023/05/26 05:34:48;;;;;;;34.10;6.47;;;;;;;;;;5012855;28;20069;-73
2023/05/26 05:37:14;;;;;;;23.15;6.00;;;;;;;;;;5029028;28;20077;-73
2023/05/26 05:39:40;;;;;;;30.45;5.03;;;;;;;;;;5028948;28;20128;-73
2023/05/26 05:42:06;;;;;;;33.92;5.78;;;;;;;;;;5013571;28;20052;-73
2023/05/26 05:44:32;;;;;;;31.80;5.70;;;;;;;;;;5016612;28;20057;-73
2023/05/26 05:46:58;;;;;;;28.50;5.75;;;;;;;;;;5027727;28;20054;-73
2023/05/26 05:49:24;;;;;;;35.70;6.38;;;;;;;;;;5031995;28;20048;-73
2023/05/26 05:51:50;;;;;;;30.38;5.97;;;;;;;;;;5031151;28;20053;-73
2023/05/26 05:54:17;;;;;;;31.58;6.07;;;;;;;;;;5011806;28;20048;-73
2023/05/26 05:56:43;;;;;;;29.58;5.75;;;;;;;;;;4990368;28;20045;-73
2023/05/26 05:59:10;;;;;;;28.77;5.55;;;;;;;;;;5012523;28;20403;-73
2023/05/26 06:01:36;;;;;;;24.42;5.30;;;;;;;;;;5022760;28;20518;-73
2023/05/26 06:04:02;;;;;;;27.80;5.00;;;;;;;;;;5019241;28;20049;-73
2023/05/26 06:06:29;;;;;;;25.48;5.97;;;;;;;;;;5030798;28;20045;-73
2023/05/26 06:08:55;;;;;;;33.25;7.00;;;;;;;;;;5031184;28;20136;-73
2023/05/26 06:11:21;;;;;;;30.83;5.90;;;;;;;;;;5030916;28;20042;-73
2023/05/26 06:13:47;;;;;;;26.33;6.00;;;;;;;;;;5028523;28;20050;-73
2023/05/26 06:16:13;;;;;;;28.23;5.47;;;;;;;;;;5019364;28;20144;-73
2023/05/26 06:18:39;;;;;;;28.73;5.63;;;;;;;;;;5031722;28;20131;-73
2023/05/26 06:21:05;;;;;;;26.85;5.30;;;;;;;;;;5031585;28;20056;-74
2023/05/26 06:23:31;;;;;;;30.77;6.00;;;;;;;;;;5015168;28;20077;-73
2023/05/26 06:25:57;;;;;;;23.80;5.07;;;;;;;;;;5017370;28;20080;-74
2023/05/26 06:28:23;;;;;;;25.55;5.03;;;;;;;;;;5013791;28;20073;-74
2023/05/26 06:30:49;;;;;;;25.25;5.95;;;;;;;;;;5029547;28;20103;-73
2023/05/26 06:33:15;;;;;;;23.17;4.88;;;;;;;;;;5030226;28;20080;-74
2023/05/26 06:35:41;;;;;;;24.73;5.60;;;;;;;;;;5029517;28;20434;-74
2023/05/26 06:38:07;;;;;;;27.63;5.78;;;;;;;;;;5020691;28;20045;-73
2023/05/26 06:40:33;;;;;;;25.00;5.07;;;;;;;;;;5021252;28;20422;-73
2023/05/26 06:42:59;;;;;;;27.17;5.15;;;;;;;;;;5013719;28;20049;-74
2023/05/26 06:45:25;;;;;;;22.30;4.78;;;;;;;;;;5031572;28;20038;-73
2023/05/26 06:47:51;;;;;;;23.30;5.10;;;;;;;;;;5030881;28;20470;-74
2023/05/26 06:50:17;;;;;;;22.92;4.90;;;;;;;;;;5030605;28;20095;-73
2023/05/26 06:52:43;;;;;;;27.60;5.80;;;;;;;;;;5030876;28;20037;-73
2023/05/26 06:55:09;;;;;;;21.35;5.53;;;;;;;;;;5029735;28;20391;-74
2023/05/26 06:57:36;;;;;;;25.33;5.32;;;;;;;;;;5029989;28;20053;-73
2023/05/26 07:00:02;;;;;;;25.25;5.22;;;;;;;;;;5031309;28;20049;-74
2023/05/26 07:02:28;;;;;;;22.02;4.78;;;;;;;;;;5028330;28;20176;-73
2023/05/26 07:04:54;;;;;;;27.90;6.47;;;;;;;;;;5031277;28;20041;-73
2023/05/26 07:07:20;;;;;;;26.58;5.07;;;;;;;;;;5030703;28;20049;-73
2023/05/26 07:09:46;;;;;;;24.10;5.38;;;;;;;;;;5028069;28;20048;-73
2023/05/26 07:12:12;;;;;;;21.17;4.78;;;;;;;;;;5011821;28;20038;-73
2023/05/26 07:14:38;;;;;;;25.17;5.10;;;;;;;;;;5027475;28;20052;-73
2023/05/26 07:17:04;;;;;;;22.20;5.20;;;;;;;;;;5031562;28;20133;-73
2023/05/26 07:19:30;;;;;;;25.48;4.80;;;;;;;;;;5031424;28;20045;-73
2023/05/26 07:21:56;;;;;;;21.30;4.72;;;;;;;;;;5031107;28;20093;-74
2023/05/26 07:24:22;;;;;;;20.90;5.10;;;;;;;;;;5028862;28;20431;-73
2023/05/26 07:26:48;;;;;;;24.42;5.38;;;;;;;;;;5013546;28;20143;-73
2023/05/26 07:29:14;;;;;;;20.83;4.97;;;;;;;;;;5031711;28;20384;-73
2023/05/26 07:31:40;;;;;;;20.27;5.03;;;;;;;;;;5031643;28;20053;-73
2023/05/26 07:34:06;;;;;;;21.48;4.60;;;;;;;;;;5029262;28;20053;-73
2023/05/26 07:36:34;;;;;;;18.92;4.90;;;;;;;;;;5031000;28;20064;-74
2023/05/26 07:39:00;;;;;;;20.15;4.43;;;;;;;;;;5028739;28;20065;-73
2023/05/26 07:41:26;;;;;;;18.25;4.60;;;;;;;;;;5028187;28;20094;-74
2023/05/26 07:43:52;;;;;;;18.92;4.70;;;;;;;;;;5028429;28;20046;-74
2023/05/26 07:46:18;;;;;;;22.80;4.80;;;;;;;;;;5029435;28;20538;-74
2023/05/26 07:48:44;;;;;;;18.70;4.32;;;;;;;;;;5028037;28;20073;-73
2023/05/26 07:51:11;;;;;;;18.35;4.75;;;;;;;;;;5029590;28;20487;-73
2023/05/26 07:53:37;;;;;;;18.80;4.88;;;;;;;;;;5030861;28;20734;-73
2023/05/26 07:56:03;;;;;;;23.30;5.40;;;;;;;;;;5032197;28;20033;-73
2023/05/26 07:58:29;;;;;;;23.95;5.38;;;;;;;;;;5020144;28;20412;-73
2023/05/26 08:00:55;;;;;;;22.30;4.93;;;;;;;;;;5032640;28;20507;-73
2023/05/26 08:03:21;;;;;;;18.83;5.05;;;;;;;;;;5034519;28;20454;-73
2023/05/26 08:05:47;;;;;;;19.70;4.35;;;;;;;;;;5031760;28;20403;-73
2023/05/26 08:08:14;;;;;;;18.73;4.63;;;;;;;;;;5029484;28;20072;-73
2023/05/26 08:10:40;;;;;;;21.45;4.57;;;;;;;;;;5032092;28;20053;-73
2023/05/26 08:13:06;;;;;;;22.05;4.88;;;;;;;;;;5034512;28;20045;-73
2023/05/26 08:15:32;;;;;;;22.27;4.55;;;;;;;;;;5034538;28;20046;-73
2023/05/26 08:17:58;;;;;;;21.20;4.75;;;;;;;;;;5028433;28;20132;-74
2023/05/26 08:20:24;;;;;;;20.88;4.47;;;;;;;;;;5032537;28;20098;-74
2023/05/26 08:22:50;;;;;;;20.23;4.65;;;;;;;;;;5031180;28;20510;-74
2023/05/26 08:25:16;;;;;;;21.95;4.22;;;;;;;;;;5043287;28;20448;-74
2023/05/26 08:27:42;;;;;;;24.45;4.60;;;;;;;;;;5033204;28;20052;-74
2023/05/26 08:30:08;;;;;;;23.00;4.55;;;;;;;;;;5033702;28;20048;-75
2023/05/26 08:32:35;;;;;;;18.02;3.90;;;;;;;;;;5030336;28;20045;-75
2023/05/26 08:35:01;;;;;;;19.95;4.78;;;;;;;;;;5029704;28;20041;-74
2023/05/26 08:37:27;;;;;;;20.75;4.75;;;;;;;;;;5031329;28;20041;-75
2023/05/26 08:39:53;;;;;;;23.88;4.82;;;;;;;;;;5032254;28;20049;-75
2023/05/26 08:42:19;;;;;;;16.45;3.65;;;;;;;;;;5033680;28;20057;-75
2023/05/26 08:44:46;;;;;;;17.02;3.55;;;;;;;;;;5038832;28;20045;-75
2023/05/26 08:47:13;;;;;;;24.52;4.53;;;;;;;;;;5013835;28;20433;-75
2023/05/26 08:49:46;;;;;;;16.98;4.70;;;;;;;;;;5030456;28;20529;-75
2023/05/26 08:52:16;;;;;;;17.35;4.25;;;;;;;;;;5023929;28;20559;-75
2023/05/26 08:54:42;;;;;;;21.08;4.40;;;;;;;;;;5030283;28;20049;-74
2023/05/26 08:57:10;;;;;;;18.52;3.90;;;;;;;;;;5028459;28;20053;-74
2023/05/26 08:59:37;;;;;;;23.02;4.75;;;;;;;;;;5028066;28;20052;-75
2023/05/26 09:02:03;;;;;;;17.05;4.15;;;;;;;;;;5016568;28;20052;-74
2023/05/26 09:04:30;;;;;;;22.17;4.07;;;;;;;;;;5031892;28;20054;-74
2023/05/26 09:06:57;;;;;;;20.38;4.10;;;;;;;;;;5027984;28;20046;-75
2023/05/26 09:09:23;;;;;;;17.15;3.85;;;;;;;;;;5031466;28;20482;-75
2023/05/26 09:11:49;;;;;;;16.70;3.50;;;;;;;;;;5035468;28;20045;-74
2023/05/26 09:14:16;;;;;;;21.15;3.83;;;;;;;;;;5033045;28;20451;-76
2023/05/26 09:16:42;;;;;;;18.85;3.78;;;;;;;;;;5030489;28;20375;-75
2023/05/26 09:19:13;;;;;;;17.38;2.65;;;;;;;;;;5017873;28;20053;-74
2023/05/26 09:21:44;;;;;;;15.35;4.00;;;;;;;;;;5031620;28;20076;-74
2023/05/26 09:24:10;;;;;;;19.55;4.30;;;;;;;;;;5030021;28;20461;-75
2023/05/26 09:26:38;;;;;;;19.70;4.03;;;;;;;;;;5035205;28;20103;-75
2023/05/26 09:29:05;;;;;;;15.43;3.97;;;;;;;;;;5036098;28;20089;-74
2023/05/26 09:31:44;;;;;;;17.88;4.43;;;;;;;;;;5031969;28;20519;-74
2023/05/26 09:34:11;;;;;;;13.50;3.17;;;;;;;;;;5033596;28;20049;-72
2023/05/26 09:36:38;;;;;;;15.13;3.28;;;;;;;;;;5041963;28;20519;-73
2023/05/26 09:39:05;;;;;;;15.25;3.30;;;;;;;;;;5030201;28;20049;-73
2023/05/26 09:41:41;;;;;;;16.58;3.60;;;;;;;;;;5027793;28;20091;-73
2023/05/26 09:44:14;;;;;;;16.92;3.60;;;;;;;;;;5025515;28;20045;-73
2023/05/26 09:46:41;;;;;;;15.70;3.30;;;;;;;;;;5031523;28;20057;-74
2023/05/26 09:49:12;;;;;;;16.52;3.83;;;;;;;;;;5029461;28;20060;-73
2023/05/26 09:51:39;;;;;;;18.58;3.58;;;;;;;;;;5011996;28;20068;-72
2023/05/26 09:54:05;;;;;;;16.00;3.42;;;;;;;;;;5031648;28;20161;-73
2023/05/26 09:56:34;;;;;;;18.58;3.55;;;;;;;;;;5030463;28;20059;-73
2023/05/26 09:59:03;;;;;;;13.90;3.40;;;;;;;;;;5032580;28;20041;-73
2023/05/26 10:01:29;;;;;;;16.85;4.00;;;;;;;;;;5032365;28;20389;-73
2023/05/26 10:03:56;;;;;;;20.35;3.72;;;;;;;;;;5032464;28;20050;-73
2023/05/26 10:06:22;;;;;;;17.13;3.70;;;;;;;;;;5032084;28;20056;-73
2023/05/26 10:08:50;;;;;;;14.68;3.90;;;;;;;;;;5031897;28;20049;-73
2023/05/26 10:11:16;;;;;;;16.75;3.40;;;;;;;;;;5049026;28;20747;-73
2023/05/26 10:13:42;;;;;;;18.88;3.58;;;;;;;;;;5033773;28;20056;-73
2023/05/26 10:16:08;;;;;;;13.57;2.92;;;;;;;;;;5032340;28;20053;-73
2023/05/26 10:18:34;;;;;;;18.13;3.33;;;;;;;;;;5026344;28;20053;-74
2023/05/26 10:21:03;;;;;;;20.55;3.40;;;;;;;;;;5028456;28;20399;-74
2023/05/26 10:23:32;;;;;;;17.45;3.97;;;;;;;;;;5023520;28;20056;-74
2023/05/26 10:26:08;;;;;;;12.48;3.28;;;;;;;;;;4997753;28;20046;-74
2023/05/26 10:28:36;;;;;;;16.77;3.40;;;;;;;;;;5029565;28;20049;-75
2023/05/26 10:31:03;;;;;;;13.02;3.40;;;;;;;;;;5013856;28;20571;-75
2023/05/26 10:33:39;;;;;;;16.65;3.53;;;;;;;;;;5009488;28;20662;-77
2023/05/26 10:36:10;;;;;;;19.92;3.70;;;;;;;;;;4998230;28;20049;-74
2023/05/26 10:38:37;;;;;;;17.10;3.22;;;;;;;;;;5031445;28;20054;-74
2023/05/26 10:41:03;;;;;;;14.68;2.97;;;;;;;;;;5030283;28;20050;-74
2023/05/26 10:43:29;;;;;;;16.83;4.05;;;;;;;;;;5031926;28;20049;-74
2023/05/26 10:45:57;;;;;;;14.00;3.40;;;;;;;;;;4996584;28;20602;-74
2023/05/26 10:48:37;;;;;;;18.30;3.78;;;;;;;;;;5026875;28;20046;-75
2023/05/26 10:51:03;;;;;;;16.83;3.42;;;;;;;;;;5028296;28;20120;-75
2023/05/26 10:53:45;;;;;;;13.48;3.17;;;;;;;;;;5031508;28;20057;-75
2023/05/26 10:56:15;;;;;;;15.60;3.70;;;;;;;;;;5031808;28;20211;-74
2023/05/26 10:58:51;;;;;;;15.90;3.63;;;;;;;;;;5029616;28;20050;-75
2023/05/26 11:01:28;;;;;;;11.20;3.30;;;;;;;;;;5031626;28;20049;-75
2023/05/26 11:03:58;;;;;;;13.55;3.60;;;;;;;;;;5031171;28;20053;-74
2023/05/26 11:06:42;;;;;;;14.77;3.80;;;;;;;;;;5031658;28;20054;-74
2023/05/26 11:09:09;;;;;;;16.17;3.47;;;;;;;;;;5031064;28;20085;-75
2023/05/26 11:11:38;;;;;;;17.63;4.00;;;;;;;;;;5012774;28;20049;-75
2023/05/26 11:14:10;;;;;;;14.85;3.83;;;;;;;;;;5009747;28;20077;-74
2023/05/26 11:16:39;;;;;;;17.40;4.28;;;;;;;;;;5017790;28;20041;-74
2023/05/26 11:19:06;;;;;;;14.52;3.50;;;;;;;;;;5031121;28;20098;-74
2023/05/26 11:21:34;;;;;;;16.10;4.18;;;;;;;;;;5029456;28;20048;-75
2023/05/26 11:24:02;;;;;;;15.30;3.08;;;;;;;;;;5022209;28;20053;-75
2023/05/26 11:26:32;;;;;;;16.27;3.90;;;;;;;;;;5029749;28;20041;-74
2023/05/26 11:29:02;;;;;;;18.77;4.32;;;;;;;;;;5033516;28;20111;-74
2023/05/26 11:31:28;;;;;;;17.10;3.92;;;;;;;;;;5033489;28;20049;-75
2023/05/26 11:33:55;;;;;;;17.85;3.65;;;;;;;;;;5032108;28;20048;-75
2023/05/26 11:36:22;;;;;;;15.60;4.07;;;;;;;;;;5028332;28;20041;-75
2023/05/26 11:38:54;;;;;;;14.77;3.55;;;;;;;;;;5026078;28;20049;-75
2023/05/26 11:41:25;;;;;;;17.73;4.18;;;;;;;;;;5030373;28;20081;-75
2023/05/26 11:43:53;;;;;;;14.50;3.55;;;;;;;;;;5034517;28;20140;-75
2023/05/26 11:46:20;;;;;;;16.67;4.28;;;;;;;;;;5028787;28;20140;-75
2023/05/26 11:48:46;;;;;;;19.25;3.72;;;;;;;;;;5035050;28;20053;-75
2023/05/26 11:51:14;;;;;;;17.23;4.22;;;;;;;;;;5032268;28;20049;-75
2023/05/26 11:53:41;;;;;;;16.25;4.13;;;;;;;;;;5019681;28;20125;-75
2023/05/26 11:56:11;;;;;;;20.90;4.60;;;;;;;;;;5033920;28;20045;-75
2023/05/26 11:58:44;;;;;;;12.75;3.85;;;;;;;;;;5029661;28;20091;-75
2023/05/26 12:01:10;;;;;;;17.88;4.25;;;;;;;;;;5031660;28;20057;-75
2023/05/26 12:03:41;;;;;;;16.90;3.67;;;;;;;;;;5034080;28;20077;-75
2023/05/26 12:06:08;;;;;;;15.13;4.60;;;;;;;;;;5031856;28;20116;-75
2023/05/26 12:08:47;;;;;;;15.38;3.75;;;;;;;;;;5040825;28;20120;-75
2023/05/26 12:11:14;;;;;;;16.08;4.25;;;;;;;;;;5025068;28;20088;-75
2023/05/26 12:13:40;;;;;;;15.95;3.85;;;;;;;;;;5031258;28;20056;-75
2023/05/26 12:16:17;;;;;;;19.00;4.18;;;;;;;;;;5033899;28;20061;-75
2023/05/26 12:18:44;;;;;;;18.63;4.38;;;;;;;;;;5033523;28;20057;-75
2023/05/26 12:21:10;;;;;;;15.23;3.53;;;;;;;;;;5030601;28;20037;-75
2023/05/26 12:23:37;;;;;;;18.90;3.92;;;;;;;;;;5033044;28;20159;-75
2023/05/26 12:26:25;;;;;;;19.02;4.93;;;;;;;;;;5024670;28;20096;-75
2023/05/26 12:29:10;;;;;;;16.52;4.43;;;;;;;;;;5015005;28;20046;-75
2023/05/26 12:31:37;;;;;;;15.75;4.15;;;;;;;;;;5021705;28;20041;-75
2023/05/26 12:34:03;;;;;;;19.38;4.45;;;;;;;;;;5033091;28;20454;-75
2023/05/26 12:36:30;;;;;;;16.40;4.57;;;;;;;;;;5031645;28;20466;-75
2023/05/26 12:38:56;;;;;;;17.98;4.50;;;;;;;;;;4996544;28;20061;-75
2023/05/26 12:41:22;;;;;;;17.13;4.20;;;;;;;;;;5031583;28;20050;-75
2023/05/26 12:43:48;;;;;;;16.17;4.95;;;;;;;;;;5032717;28;20041;-75
2023/05/26 12:46:14;;;;;;;19.50;4.88;;;;;;;;;;5033021;28;20057;-75
2023/05/26 12:48:40;;;;;;;20.08;4.75;;;;;;;;;;5020431;28;20042;-75
2023/05/26 12:51:06;;;;;;;20.90;4.93;;;;;;;;;;5035820;28;20057;-75
2023/05/26 12:53:32;;;;;;;18.88;4.55;;;;;;;;;;5048466;28;20049;-74
2023/05/26 12:55:59;;;;;;;17.80;4.35;;;;;;;;;;5030971;28;20046;-75
2023/05/26 12:58:25;;;;;;;19.80;5.15;;;;;;;;;;5031934;28;20098;-75
2023/05/26 13:00:52;;;;;;;18.48;4.20;;;;;;;;;;5024626;28;20084;-75
2023/05/26 13:03:20;;;;;;;24.02;5.45;;;;;;;;;;5028208;28;20400;-75
2023/05/26 13:05:50;;;;;;;17.48;4.78;;;;;;;;;;5012076;28;20099;-75
2023/05/26 13:08:17;;;;;;;21.15;5.20;;;;;;;;;;5031422;28;20041;-75
2023/05/26 13:10:44;;;;;;;19.65;4.40;;;;;;;;;;5030353;28;20410;-75
2023/05/26 13:13:11;;;;;;;17.13;4.28;;;;;;;;;;5043994;28;20056;-74
2023/05/26 13:15:37;;;;;;;17.65;4.15;;;;;;;;;;5000958;28;20156;-75
2023/05/26 13:18:03;;;;;;;17.90;4.70;;;;;;;;;;5046358;28;20124;-75
2023/05/26 13:20:29;;;;;;;18.63;4.25;;;;;;;;;;5032293;28;20049;-75
2023/05/26 13:22:55;;;;;;;20.92;4.90;;;;;;;;;;5021726;28;20141;-75
2023/05/26 13:25:22;;;;;;;16.63;4.03;;;;;;;;;;5022830;28;20499;-75
2023/05/26 13:27:48;;;;;;;17.05;3.88;;;;;;;;;;5005077;28;20041;-75
2023/05/26 13:30:15;;;;;;;17.70;4.55;;;;;;;;;;5029145;28;20054;-75
2023/05/26 13:32:41;;;;;;;22.15;4.93;;;;;;;;;;5027289;28;20052;-75
2023/05/26 13:35:07;;;;;;;18.38;4.00;;;;;;;;;;5026078;28;20175;-75
2023/05/26 13:37:33;;;;;;;16.08;4.18;;;;;;;;;;5015836;28;20440;-75
2023/05/26 13:39:59;;;;;;;18.80;4.38;;;;;;;;;;5027700;28;20622;-75
2023/05/26 13:42:25;;;;;;;18.50;4.07;;;;;;;;;;5027930;28;20053;-75
2023/05/26 13:44:51;;;;;;;16.70;3.60;;;;;;;;;;5031936;28;20396;-75
2023/05/26 13:47:17;;;;;;;16.08;3.90;;;;;;;;;;5042169;28;20061;-75
2023/05/26 13:49:43;;;;;;;15.40;4.05;;;;;;;;;;5031857;28;20057;-75
2023/05/26 13:52:10;;;;;;;15.25;3.80;;;;;;;;;;5029790;28;20052;-75
2023/05/26 13:54:35;;;;;;;16.95;3.80;;;;;;;;;;5029922;28;21513;-75
2023/05/26 13:57:03;;;;;;;15.15;4.40;;;;;;;;;;5031529;28;20053;-75
2023/05/26 13:59:29;;;;;;;18.38;4.22;;;;;;;;;;5031663;28;20087;-75
2023/05/26 14:01:55;;;;;;;18.80;4.60;;;;;;;;;;5018725;28;20567;-75
2023/05/26 14:04:25;;;;;;;20.75;4.75;;;;;;;;;;5030268;28;20120;-75
2023/05/26 14:06:51;;;;;;;17.58;4.18;;;;;;;;;;5027900;28;20041;-75
2023/05/26 14:09:17;;;;;;;23.98;4.68;;;;;;;;;;5024536;28;20132;-75
2023/05/26 14:11:44;;;;;;;17.92;5.45;;;;;;;;;;4998922;28;20141;-75
2023/05/26 14:14:10;;;;;;;20.17;4.65;;;;;;;;;;5027255;28;20053;-75
2023/05/26 14:16:36;;;;;;;20.60;4.50;;;;;;;;;;5030264;28;20087;-75
2023/05/26 14:19:02;;;;;;;17.73;4.63;;;;;;;;;;5031928;28;20123;-74
2023/05/26 14:21:28;;;;;;;16.90;4.22;;;;;;;;;;5030672;28;20099;-75
2023/05/26 14:23:54;;;;;;;18.48;4.28;;;;;;;;;;5029646;28;20046;-75
2023/05/26 14:26:20;;;;;;;19.98;4.28;;;;;;;;;;5028329;28;20049;-75
2023/05/26 14:28:47;;;;;;;19.38;4.75;;;;;;;;;;5022352;28;20076;-75
2023/05/26 14:31:13;;;;;;;15.98;4.40;;;;;;;;;;5029501;28;20049;-75